Terminal Aerodrome Forecast
Issued by NWS

Home | Current Version | Previous Version | Text Only | Print | Product List | Glossary On
Versions: 1 2 3 4 5 6 7 8 9 10 11 12 13 14 15 16 17 18 19
000
FTUS44 KCRP 070526
TAFLRD
TAF
KLRD 070526Z 0706/0806 04014KT P6SM SCT015
     FM070900 04008KT P6SM OVC012
     FM071400 04005KT 6SM BR BKN006 OVC012
      TEMPO 0714/0718 3SM -DZ BR OVC005
     FM071800 08006KT P6SM SCT015 BKN025
     FM072300 08006KT P6SM FEW015 SCT025=

USA.gov is the U.S. government's official web portal to all federal, state and local government web resources and services.